Suapan, Botswana
Current Conditions -  °F | °C
As of 9:00 AM on Thursday 27 Nov 2014 (Local Time) from FBSP Reporting Station
Broken Clouds Broken Clouds  
Wind Chill: 73°   Ceiling: 8000
Heat Index: 73°   Visibility: 6mi
Dew Point: 59°   Wind: 14mph
Humidity: 61%   Direction: 110°ESE
Pressure: 30.03"   Gusts: NA
Location:  20.47°S, 25.98°E
Report Text: FBSP 270700Z 11012KT 9999 FEW020 BKN080 23/15 Q1017
Loading
Personal Weather Stations






























Interactive Weather Map New forecast layout! Learn more

10-Day Weather Forecast

Advertisements
Track Severe Weather on mobile